Time;durP1;ratioP1;P1;durP2;ratioP2;P2;SDS_P1;SDS_P2;PMS_P1;PMS_P2;Temp;Humidity;BMP_temperature;BMP_pressure;BME280_temperature;BME280_humidity;BME280_pressure;Samples;Min_cycle;Max_cycle;Signal;HPM_P1;HPM_P2
2021/12/25 00:01:42;;;;;;;23.67;20.35;;;;;;;9.96;96.34;100445.34;4997264;28;20033;-75
2021/12/25 00:04:23;;;;;;;27.17;20.58;;;;;;;9.97;96.22;100441.41;4997030;28;20026;-75
2021/12/25 00:06:51;;;;;;;27.45;21.50;;;;;;;9.98;96.00;100438.25;4997227;28;20168;-75
2021/12/25 00:09:17;;;;;;;25.17;20.40;;;;;;;9.94;95.94;100436.53;4997595;28;20481;-74
2021/12/25 00:11:49;;;;;;;29.27;21.95;;;;;;;10.05;96.19;100442.41;4996695;28;20030;-75
2021/12/25 00:14:17;;;;;;;26.17;20.48;;;;;;;10.08;95.95;100436.16;4997504;28;20411;-75
2021/12/25 00:16:43;;;;;;;27.15;20.08;;;;;;;10.10;95.82;100437.41;4996743;28;20034;-75
2021/12/25 00:19:16;;;;;;;27.67;21.52;;;;;;;10.06;95.96;100432.91;4997585;28;20034;-75
2021/12/25 00:21:44;;;;;;;26.67;19.98;;;;;;;10.06;95.71;100432.91;4996732;28;20029;-75
2021/12/25 00:24:15;;;;;;;28.17;21.85;;;;;;;10.06;95.21;100435.69;5014435;28;20054;-75
2021/12/25 00:27:09;;;;;;;29.08;20.88;;;;;;;10.03;95.31;100428.06;4996667;28;20028;-75
2021/12/25 00:34:50;;;;;;;24.27;18.08;;;;;;;10.06;95.46;100416.22;5013921;28;20037;-75
2021/12/25 00:37:16;;;;;;;23.58;17.65;;;;;;;9.97;95.45;100414.41;4997594;28;20365;-75
2021/12/25 00:39:45;;;;;;;21.55;16.23;;;;;;;9.95;95.58;100411.16;4997069;28;20600;-75
2021/12/25 00:42:11;;;;;;;22.20;18.13;;;;;;;9.95;95.62;100410.34;4996501;28;20030;-75
2021/12/25 00:44:46;;;;;;;22.05;17.33;;;;;;;9.90;95.61;100403.06;5014847;28;20096;-75
2021/12/25 00:47:17;;;;;;;23.45;17.33;;;;;;;9.88;96.04;100404.59;4997541;28;20116;-75
2021/12/25 00:50:08;;;;;;;19.75;16.35;;;;;;;9.88;96.33;100402.63;4997278;28;20124;-75
2021/12/25 00:52:39;;;;;;;17.65;14.02;;;;;;;9.89;96.51;100409.78;4997096;28;20030;-75
2021/12/25 00:55:28;;;;;;;24.95;18.70;;;;;;;9.92;96.89;100411.06;5018586;28;20104;-75
2021/12/25 00:57:56;;;;;;;24.70;19.40;;;;;;;9.86;96.18;100402.19;5000421;28;20054;-75
2021/12/25 01:03:11;;;;;;;20.88;17.27;;;;;;;9.84;96.40;100401.69;5015026;28;20046;-75
2021/12/25 01:05:43;;;;;;;19.75;16.40;;;;;;;9.90;96.45;100416.97;5001943;28;20030;-75
2021/12/25 01:08:23;;;;;;;19.25;15.35;;;;;;;9.91;96.40;100415.81;5001942;28;20468;-75
2021/12/25 01:10:52;;;;;;;15.70;12.82;;;;;;;9.94;96.66;100409.53;5001663;28;20093;-75
2021/12/25 01:13:28;;;;;;;19.10;14.30;;;;;;;9.94;96.62;100405.97;5001805;28;20041;-74
2021/12/25 01:29:32;;;;;;;19.75;14.68;;;;;;;10.03;95.33;100386.38;5018054;28;20041;-74
2021/12/25 01:48:02;;;;;;;19.00;15.38;;;;;;;9.97;95.44;100386.63;5017577;28;20044;-74
2021/12/25 01:50:33;;;;;;;16.55;13.27;;;;;;;10.02;95.11;100381.97;5000043;28;20072;-74
2021/12/25 01:53:01;;;;;;;18.35;13.65;;;;;;;10.00;95.04;100375.94;5017271;28;20030;-74
2021/12/25 01:55:30;;;;;;;16.63;13.15;;;;;;;9.98;95.16;100382.66;5017074;28;20385;-74
2021/12/25 01:57:59;;;;;;;14.82;12.68;;;;;;;9.96;95.19;100373.88;4999223;28;20503;-75
2021/12/25 02:00:41;;;;;;;11.30;10.15;;;;;;;10.06;95.98;100372.53;4999309;28;20088;-74
2021/12/25 02:03:10;;;;;;;11.32;9.70;;;;;;;10.10;95.85;100376.22;4999141;28;20129;-74
2021/12/25 02:05:39;;;;;;;10.27;8.90;;;;;;;10.19;94.87;100376.09;5016251;28;20029;-74
2021/12/25 02:08:05;;;;;;;12.70;8.23;;;;;;;10.23;94.21;100377.00;5017416;28;20045;-74
2021/12/25 02:10:33;;;;;;;17.90;9.68;;;;;;;10.26;94.14;100364.38;4999786;28;20097;-74
2021/12/25 02:13:01;;;;;;;9.32;8.43;;;;;;;10.28;93.08;100368.44;4999287;28;20034;-74
2021/12/25 02:15:33;;;;;;;10.20;9.13;;;;;;;10.23;93.63;100377.84;4999779;28;20121;-75
2021/12/25 02:18:11;;;;;;;19.50;11.32;;;;;;;10.21;93.49;100379.31;4998903;28;20041;-74
2021/12/25 02:20:54;;;;;;;13.23;11.30;;;;;;;10.10;93.91;100364.31;5016780;28;20034;-74
2021/12/25 02:23:24;;;;;;;11.55;8.57;;;;;;;10.20;94.90;100372.13;5016371;28;20116;-75
2021/12/25 02:25:55;;;;;;;13.45;9.25;;;;;;;10.16;94.14;100360.09;4999428;28;20181;-74
2021/12/25 02:28:23;;;;;;;16.08;9.77;;;;;;;10.13;94.99;100350.50;4999056;28;20030;-74
2021/12/25 02:30:51;;;;;;;12.57;10.65;;;;;;;10.09;94.39;100357.94;4999022;28;20038;-74
2021/12/25 02:33:20;;;;;;;11.70;10.32;;;;;;;10.08;94.84;100358.31;4998847;28;20025;-74
2021/12/25 02:35:48;;;;;;;16.15;11.20;;;;;;;10.02;94.98;100359.72;4999126;28;20111;-74
2021/12/25 02:38:19;;;;;;;9.98;8.95;;;;;;;9.82;95.69;100328.19;4999439;28;20400;-74
2021/12/25 02:40:45;;;;;;;13.23;9.82;;;;;;;10.04;95.56;100341.53;5000126;28;20112;-74
2021/12/25 02:43:16;;;;;;;13.30;9.93;;;;;;;10.10;94.52;100345.66;5000018;28;20472;-74
2021/12/25 02:45:42;;;;;;;12.15;9.63;;;;;;;10.06;94.44;100341.16;4999192;28;20037;-74
2021/12/25 02:48:10;;;;;;;16.55;9.95;;;;;;;10.04;94.93;100347.06;5016262;28;20026;-74
2021/12/25 02:50:39;;;;;;;16.10;10.50;;;;;;;10.06;94.74;100343.94;4999679;28;20029;-74
2021/12/25 02:53:07;;;;;;;13.13;10.38;;;;;;;10.04;94.23;100341.53;5000150;28;20033;-74
2021/12/25 02:55:38;;;;;;;12.57;9.40;;;;;;;10.14;93.76;100341.00;4998697;28;20026;-74
2021/12/25 02:58:04;;;;;;;12.07;10.18;;;;;;;10.12;93.21;100337.78;5015606;28;20129;-74
2021/12/25 03:00:59;;;;;;;6.35;5.80;;;;;;;10.33;92.40;100331.97;4998032;28;20472;-74
2021/12/25 03:03:28;;;;;;;12.48;8.63;;;;;;;10.35;90.37;100326.91;4998453;28;20026;-74
2021/12/25 03:05:55;;;;;;;9.00;7.43;;;;;;;10.30;90.60;100323.56;4998673;28;20483;-74
2021/12/25 03:08:21;;;;;;;9.13;7.72;;;;;;;10.25;91.27;100330.19;4998059;28;20041;-74
2021/12/25 03:10:48;;;;;;;13.50;8.10;;;;;;;10.19;91.70;100332.41;4997846;28;20038;-74
2021/12/25 03:13:30;;;;;;;14.27;10.18;;;;;;;10.14;91.86;100329.88;4997893;28;20038;-74
2021/12/25 03:15:56;;;;;;;14.20;8.27;;;;;;;10.17;92.61;100317.22;4997770;28;20030;-74
2021/12/25 03:18:25;;;;;;;10.00;7.43;;;;;;;10.06;92.20;100305.03;4997623;28;20118;-74
2021/12/25 03:20:55;;;;;;;10.63;9.20;;;;;;;10.05;92.43;100303.41;4997641;28;20037;-74
2021/12/25 03:23:27;;;;;;;12.20;8.95;;;;;;;10.12;92.59;100303.59;4998095;28;20467;-74
2021/12/25 03:26:00;;;;;;;15.48;11.20;;;;;;;10.06;92.80;100305.81;4998167;28;20030;-74
2021/12/25 03:28:33;;;;;;;12.75;9.77;;;;;;;10.06;92.78;100308.59;4998151;28;20025;-74
2021/12/25 03:31:05;;;;;;;13.77;8.73;;;;;;;10.01;93.11;100316.41;4997889;28;20026;-74
2021/12/25 03:33:36;;;;;;;11.40;8.05;;;;;;;9.98;93.80;100310.41;4997197;28;20037;-74
2021/12/25 03:36:02;;;;;;;12.95;7.90;;;;;;;9.94;93.70;100326.16;5015297;28;20602;-74
2021/12/25 03:38:30;;;;;;;10.98;8.20;;;;;;;9.99;93.59;100333.44;5015007;28;20216;-74
2021/12/25 03:41:02;;;;;;;8.85;7.50;;;;;;;9.93;93.59;100324.56;5015071;28;20022;-74
2021/12/25 03:43:28;;;;;;;7.85;7.05;;;;;;;10.00;94.58;100334.25;4997200;28;20034;-74
2021/12/25 03:45:56;;;;;;;7.22;4.63;;;;;;;10.29;95.12;100335.88;4997844;28;20022;-74
2021/12/25 03:59:07;;;;;;;8.60;6.63;;;;;;;10.34;91.82;100333.63;5015245;28;20045;-74
2021/12/25 04:04:17;;;;;;;8.13;6.32;;;;;;;10.62;91.57;100343.88;5014896;28;20030;-74
2021/12/25 04:06:55;;;;;;;8.43;6.10;;;;;;;10.43;91.32;100337.03;4997064;28;20050;-74
2021/12/25 04:09:28;;;;;;;8.05;5.72;;;;;;;10.37;92.41;100340.44;4997404;28;20032;-74
2021/12/25 04:12:00;;;;;;;7.18;6.18;;;;;;;10.26;92.52;100342.13;4997329;28;20029;-74
2021/12/25 04:14:31;;;;;;;7.75;5.88;;;;;;;10.22;93.22;100347.56;5015344;28;20049;-74
2021/12/25 04:17:00;;;;;;;7.07;6.38;;;;;;;10.28;94.22;100340.63;4997366;28;20034;-74
2021/12/25 04:19:29;;;;;;;7.70;6.88;;;;;;;10.43;93.26;100334.25;4998026;28;20030;-74
2021/12/25 04:22:02;;;;;;;7.18;5.65;;;;;;;10.54;92.13;100331.72;4998460;28;20096;-74
2021/12/25 04:24:37;;;;;;;10.97;6.20;;;;;;;10.56;92.06;100312.72;4999799;28;20084;-74
2021/12/25 04:27:07;;;;;;;7.70;6.63;;;;;;;10.90;89.76;100333.41;5003272;28;20260;-74
2021/12/25 04:29:40;;;;;;;7.88;7.18;;;;;;;10.65;90.29;100338.41;5004929;28;20041;-74
2021/12/25 04:32:38;;;;;;;10.30;6.23;;;;;;;10.52;91.07;100338.84;5005713;28;20025;-74
2021/12/25 05:03:38;;;;;;;6.10;4.97;;;;;;;10.07;92.93;100309.44;5014574;28;20053;-74
2021/12/25 05:05:33;;;;;;;7.38;5.20;;;;;;;10.15;91.51;100314.00;5003555;28;20033;-74
2021/12/25 05:07:59;;;;;;;7.78;5.20;;;;;;;10.31;91.83;100314.84;4997274;28;20042;-74
2021/12/25 05:10:25;;;;;;;12.10;5.82;;;;;;;10.40;90.62;100323.03;5015346;28;20504;-74
2021/12/25 05:12:53;;;;;;;6.05;5.47;;;;;;;10.33;90.01;100314.50;4998793;28;20369;-74
2021/12/25 05:15:27;;;;;;;5.88;4.82;;;;;;;10.30;91.65;100304.91;5014473;28;20503;-74
2021/12/25 05:17:55;;;;;;;6.60;5.03;;;;;;;10.41;92.03;100310.75;4997181;28;20030;-74
2021/12/25 05:20:24;;;;;;;5.22;4.80;;;;;;;10.23;91.79;100313.88;5015860;28;20026;-74
2021/12/25 05:22:53;;;;;;;6.95;4.35;;;;;;;10.17;92.82;100320.00;5000273;28;20034;-75
2021/12/25 05:25:21;;;;;;;5.38;4.75;;;;;;;10.07;92.79;100312.22;5004264;28;20040;-75
2021/12/25 05:27:52;;;;;;;8.52;6.25;;;;;;;10.01;93.29;100299.72;4997786;28;20066;-74
2021/12/25 05:30:22;;;;;;;7.03;6.22;;;;;;;10.00;93.96;100293.34;4997414;28;20033;-75
2021/12/25 05:32:59;;;;;;;6.07;5.47;;;;;;;10.01;93.78;100300.53;4997033;28;20037;-74
2021/12/25 05:35:27;;;;;;;9.80;5.38;;;;;;;9.96;94.71;100296.06;4997625;28;20033;-75
2021/12/25 05:37:59;;;;;;;6.22;5.20;;;;;;;9.89;94.51;100295.03;5000734;28;20034;-75
2021/12/25 05:40:28;;;;;;;8.00;5.20;;;;;;;9.87;94.42;100298.19;5005261;28;20125;-75
2021/12/25 05:42:59;;;;;;;8.65;5.10;;;;;;;9.83;94.94;100286.16;5007114;28;20045;-76
2021/12/25 05:45:29;;;;;;;4.93;4.43;;;;;;;9.84;95.26;100290.53;5006906;28;20026;-75
2021/12/25 05:48:01;;;;;;;7.20;4.57;;;;;;;9.93;94.45;100288.41;5007829;28;20034;-74
2021/12/25 05:50:28;;;;;;;6.28;3.65;;;;;;;9.91;94.18;100285.19;5007092;28;20030;-75
2021/12/25 05:52:59;;;;;;;7.85;4.28;;;;;;;10.00;94.13;100289.75;5024919;28;20030;-76
2021/12/25 05:55:28;;;;;;;4.82;4.35;;;;;;;9.89;93.17;100290.28;5008072;28;20022;-75
2021/12/25 05:57:56;;;;;;;8.80;5.82;;;;;;;9.85;93.04;100288.56;5006840;28;20052;-75
2021/12/25 06:00:23;;;;;;;13.68;9.35;;;;;;;9.89;92.62;100293.06;5003586;28;20061;-74
2021/12/25 06:02:50;;;;;;;50.65;31.33;;;;;;;9.82;92.90;100294.84;5007955;28;20041;-74
2021/12/25 06:05:16;;;;;;;50.20;33.92;;;;;;;9.79;93.01;100301.09;5008132;28;20029;-75
2021/12/25 06:07:45;;;;;;;30.33;20.17;;;;;;;9.78;92.98;100294.75;5007586;28;20030;-74
2021/12/25 06:10:17;;;;;;;20.60;15.70;;;;;;;9.65;92.99;100284.88;5004019;28;20034;-75
2021/12/25 06:12:53;;;;;;;15.25;10.68;;;;;;;9.62;93.08;100288.34;5001895;28;20495;-74
2021/12/25 06:15:20;;;;;;;8.68;7.13;;;;;;;9.70;92.33;100281.84;5001568;28;20041;-74
2021/12/25 06:17:49;;;;;;;10.50;7.55;;;;;;;9.69;92.80;100285.75;5001291;28;20030;-74
2021/12/25 06:20:20;;;;;;;7.88;5.22;;;;;;;9.66;93.45;100280.91;5001343;28;20034;-74
2021/12/25 06:22:48;;;;;;;4.80;4.35;;;;;;;9.66;93.96;100284.50;5000630;28;20068;-74
2021/12/25 06:25:14;;;;;;;9.55;8.18;;;;;;;9.74;92.71;100288.28;5000212;28;20057;-74
2021/12/25 06:27:40;;;;;;;8.48;7.28;;;;;;;9.73;92.75;100278.31;5000227;28;20060;-74
2021/12/25 06:30:10;;;;;;;9.80;7.93;;;;;;;9.64;93.18;100288.78;5000470;28;20500;-74
2021/12/25 06:32:39;;;;;;;8.68;7.00;;;;;;;9.65;93.18;100279.31;4999590;28;20477;-74
2021/12/25 06:35:08;;;;;;;6.22;4.70;;;;;;;9.64;94.05;100283.22;4999022;28;20117;-74
2021/12/25 06:37:36;;;;;;;5.80;3.33;;;;;;;9.83;94.26;100269.47;4999327;28;20036;-74
2021/12/25 06:40:10;;;;;;;5.18;4.20;;;;;;;9.86;93.75;100279.09;4999259;28;20036;-74
2021/12/25 06:42:38;;;;;;;6.65;4.32;;;;;;;9.81;93.60;100271.81;5017098;28;20022;-74
2021/12/25 06:45:06;;;;;;;6.63;3.95;;;;;;;9.90;93.03;100282.75;5000010;28;20058;-74
2021/12/25 06:47:34;;;;;;;4.95;4.45;;;;;;;9.88;92.76;100280.34;4999861;28;20111;-74
2021/12/25 06:49:59;;;;;;;9.68;7.20;;;;;;;9.89;92.51;100275.59;4999442;28;20068;-74
2021/12/25 06:52:27;;;;;;;12.93;7.75;;;;;;;10.04;92.06;100268.44;4999014;28;20053;-74
2021/12/25 06:54:53;;;;;;;6.50;5.80;;;;;;;10.00;91.13;100279.44;4999332;28;20034;-74
2021/12/25 06:57:21;;;;;;;5.85;4.55;;;;;;;10.01;91.12;100269.13;4998289;28;20176;-74
2021/12/25 06:59:47;;;;;;;7.72;5.00;;;;;;;10.01;91.86;100274.69;4999169;28;20022;-74
2021/12/25 07:02:16;;;;;;;7.63;4.65;;;;;;;10.03;91.86;100277.94;4999383;28;20454;-75
2021/12/25 07:04:46;;;;;;;4.10;3.63;;;;;;;10.11;91.61;100277.75;4999352;28;20100;-74
2021/12/25 07:07:18;;;;;;;4.28;3.88;;;;;;;10.21;90.62;100273.66;4999376;28;20042;-74
2021/12/25 07:09:47;;;;;;;5.43;4.15;;;;;;;10.45;89.05;100279.06;5016036;28;20366;-74
2021/12/25 07:12:15;;;;;;;5.55;3.85;;;;;;;10.49;88.25;100266.06;4998433;28;20482;-74
2021/12/25 07:14:47;;;;;;;3.83;3.42;;;;;;;10.65;87.97;100268.00;4998758;28;20029;-74
2021/12/25 07:17:14;;;;;;;5.50;3.92;;;;;;;10.76;87.96;100277.44;4998440;28;20033;-74
2021/12/25 07:19:40;;;;;;;6.30;3.50;;;;;;;11.12;86.27;100284.59;4998894;28;20524;-74
2021/12/25 07:22:08;;;;;;;4.60;4.18;;;;;;;11.42;85.12;100278.47;4999428;28;20061;-74
2021/12/25 07:24:37;;;;;;;7.20;4.72;;;;;;;11.60;84.18;100281.63;5016721;28;20030;-74
2021/12/25 07:27:08;;;;;;;5.75;3.95;;;;;;;11.55;83.20;100269.59;5016914;28;20030;-74
2021/12/25 07:29:34;;;;;;;4.03;3.67;;;;;;;11.43;82.90;100264.19;5017436;28;20460;-74
2021/12/25 07:32:06;;;;;;;7.07;3.60;;;;;;;11.41;83.09;100258.16;4999450;28;20030;-74
2021/12/25 07:34:41;;;;;;;6.18;3.90;;;;;;;11.41;82.78;100258.16;5018551;28;20033;-75
2021/12/25 07:37:12;;;;;;;4.43;3.47;;;;;;;11.49;82.74;100253.53;5003116;28;20037;-76
2021/12/25 07:39:38;;;;;;;5.25;3.75;;;;;;;11.69;81.77;100257.13;5005790;28;20361;-77
2021/12/25 07:42:10;;;;;;;5.85;3.75;;;;;;;11.83;81.21;100256.63;5005815;28;20036;-74
2021/12/25 07:44:35;;;;;;;4.28;3.63;;;;;;;11.92;80.52;100246.84;5003464;28;20054;-76
2021/12/25 07:47:04;;;;;;;4.80;4.30;;;;;;;12.15;79.91;100241.28;5000382;28;20036;-74
2021/12/25 07:49:34;;;;;;;5.85;4.80;;;;;;;12.42;78.00;100246.91;4999282;28;20469;-75
2021/12/25 07:52:02;;;;;;;5.68;4.75;;;;;;;12.52;78.13;100247.09;4999453;28;20456;-74
2021/12/25 07:54:35;;;;;;;6.85;5.10;;;;;;;12.57;76.61;100255.16;5000476;28;20034;-74
2021/12/25 07:57:03;;;;;;;7.68;6.00;;;;;;;12.75;76.04;100251.81;5000723;28;20085;-74
2021/12/25 07:59:31;;;;;;;10.80;6.93;;;;;;;12.87;75.44;100254.38;4997838;28;20470;-75
2021/12/25 08:02:17;;;;;;;7.40;6.22;;;;;;;13.13;75.69;100252.75;4997337;28;20535;-75
2021/12/25 08:04:45;;;;;;;6.30;4.65;;;;;;;13.19;72.41;100242.84;4998221;28;20485;-75
2021/12/25 08:07:13;;;;;;;4.63;4.22;;;;;;;13.27;71.62;100250.19;4998783;28;20453;-74
2021/12/25 08:10:06;;;;;;;3.80;3.42;;;;;;;13.39;72.49;100238.75;4998596;28;20037;-74
2021/12/25 08:12:34;;;;;;;4.22;3.58;;;;;;;13.43;70.87;100249.97;4997267;28;20038;-74
2021/12/25 08:15:03;;;;;;;4.22;3.30;;;;;;;13.67;68.82;100254.25;4996972;28;20043;-75
2021/12/25 08:17:32;;;;;;;4.97;2.53;;;;;;;13.87;68.43;100248.09;4997373;28;20033;-74
2021/12/25 08:20:00;;;;;;;4.80;3.50;;;;;;;14.12;68.50;100256.75;4997660;28;20026;-74
2021/12/25 08:22:28;;;;;;;7.90;3.80;;;;;;;14.56;66.90;100250.34;4997225;28;20461;-75
2021/12/25 08:24:54;;;;;;;4.28;3.17;;;;;;;14.64;66.34;100248.38;4996782;28;20030;-76
2021/12/25 08:27:35;;;;;;;3.38;2.92;;;;;;;14.24;66.89;100246.44;4997905;28;20034;-74
2021/12/25 08:30:08;;;;;;;5.97;4.78;;;;;;;14.27;66.39;100240.84;4997778;28;20349;-75
2021/12/25 08:32:39;;;;;;;22.33;13.43;;;;;;;14.15;66.38;100244.75;4996771;28;20065;-75
2021/12/25 08:35:06;;;;;;;4.47;3.30;;;;;;;14.29;65.58;100243.28;4997326;28;20411;-75
2021/12/25 08:37:38;;;;;;;3.30;2.72;;;;;;;14.55;65.78;100236.75;4996610;28;20127;-75
2021/12/25 08:40:07;;;;;;;3.42;3.13;;;;;;;14.86;64.50;100243.72;4996574;28;20518;-75
2021/12/25 08:42:45;;;;;;;4.80;3.67;;;;;;;15.24;62.97;100241.56;4996436;28;20037;-76
2021/12/25 08:45:30;;;;;;;13.60;8.27;;;;;;;15.32;63.37;100237.59;4996390;28;20042;-75
2021/12/25 08:47:59;;;;;;;4.75;3.70;;;;;;;15.64;62.46;100248.97;4995807;28;20030;-75
2021/12/25 08:50:30;;;;;;;5.18;3.35;;;;;;;15.82;61.51;100241.41;4995485;28;20052;-75
2021/12/25 08:52:55;;;;;;;5.75;5.10;;;;;;;16.14;59.16;100249.88;4995316;28;20125;-75
2021/12/25 08:55:24;;;;;;;8.85;6.00;;;;;;;16.06;59.27;100253.88;4995490;28;20022;-77
2021/12/25 08:57:56;;;;;;;5.03;3.72;;;;;;;15.56;59.65;100250.91;4996236;28;20053;-74
2021/12/25 09:00:24;;;;;;;4.55;3.88;;;;;;;15.43;61.06;100252.44;4999236;28;20080;-76
2021/12/25 09:02:53;;;;;;;7.18;5.97;;;;;;;15.68;60.00;100255.38;5014409;28;20388;-76
2021/12/25 09:05:24;;;;;;;5.78;4.55;;;;;;;15.87;59.83;100248.59;4996092;28;20096;-75
2021/12/25 09:07:52;;;;;;;7.30;6.55;;;;;;;15.99;58.21;100248.25;5013143;28;20030;-75
2021/12/25 09:10:22;;;;;;;4.57;3.70;;;;;;;15.79;57.52;100238.59;4995950;28;20392;-75
2021/12/25 09:12:50;;;;;;;6.20;4.88;;;;;;;15.98;57.27;100243.84;5013507;28;20443;-75
2021/12/25 09:15:21;;;;;;;4.05;3.70;;;;;;;16.00;56.30;100241.44;4998867;28;20409;-74
2021/12/25 09:17:49;;;;;;;5.90;3.50;;;;;;;16.02;55.82;100241.84;4999635;28;20029;-76
2021/12/25 09:20:16;;;;;;;5.57;4.47;;;;;;;15.89;56.60;100243.44;4999555;28;20469;-75
2021/12/25 09:22:43;;;;;;;7.32;5.22;;;;;;;15.83;56.71;100245.81;4999290;28;20026;-73
2021/12/25 09:25:08;;;;;;;7.10;4.30;;;;;;;15.64;57.37;100244.16;5000983;28;20496;-75
2021/12/25 09:27:37;;;;;;;3.90;3.50;;;;;;;15.67;58.03;100248.19;5000518;28;20129;-76
2021/12/25 09:30:07;;;;;;;9.43;5.40;;;;;;;15.48;56.91;100238.06;5000927;28;20041;-76
2021/12/25 09:32:56;;;;;;;18.98;12.00;;;;;;;15.24;57.68;100247.19;5001823;28;20029;-75
2021/12/25 09:35:24;;;;;;;17.58;11.10;;;;;;;15.49;57.56;100236.84;4993436;28;20038;-75
2021/12/25 09:37:58;;;;;;;38.25;21.25;;;;;;;15.30;58.36;100245.59;5003108;28;20029;-75
2021/12/25 09:40:24;;;;;;;40.47;25.35;;;;;;;15.08;58.95;100234.28;5002760;28;20473;-75
2021/12/25 09:42:54;;;;;;;11.85;8.10;;;;;;;14.92;58.97;100233.78;5002197;28;20033;-76
2021/12/25 09:45:22;;;;;;;40.90;24.55;;;;;;;15.04;60.15;100233.44;5003555;28;20025;-75
2021/12/25 09:47:50;;;;;;;21.63;13.25;;;;;;;14.93;59.18;100230.59;5002261;28;20452;-76
2021/12/25 09:50:19;;;;;;;31.65;20.35;;;;;;;14.78;59.92;100231.69;5003030;28;20030;-75
2021/12/25 09:52:48;;;;;;;19.77;12.93;;;;;;;14.73;60.28;100234.06;5002920;28;20091;-75
2021/12/25 09:55:15;;;;;;;21.10;13.20;;;;;;;14.64;59.35;100228.78;5003213;28;20042;-75
2021/12/25 09:57:46;;;;;;;18.80;14.02;;;;;;;14.55;59.59;100217.94;5003117;28;20060;-75
2021/12/25 10:00:21;;;;;;;6.38;3.53;;;;;;;14.67;59.97;100219.63;5003684;28;20108;-75
2021/12/25 10:02:52;;;;;;;4.88;3.67;;;;;;;14.58;60.03;100211.53;5004177;28;20094;-75
2021/12/25 10:05:34;;;;;;;5.20;3.35;;;;;;;14.70;59.83;100199.25;5003303;28;20026;-75
2021/12/25 10:08:12;;;;;;;5.75;5.15;;;;;;;14.66;60.07;100202.00;5001988;28;20034;-75
2021/12/25 10:10:49;;;;;;;3.53;3.17;;;;;;;14.50;60.00;100197.91;5000722;28;20030;-75
2021/12/25 10:13:32;;;;;;;9.00;3.45;;;;;;;14.29;60.42;100204.13;5001197;28;20080;-74
2021/12/25 10:16:19;;;;;;;3.83;3.30;;;;;;;14.43;59.91;100198.59;5019571;28;20025;-75
2021/12/25 10:18:52;;;;;;;5.72;4.28;;;;;;;14.49;59.65;100190.69;4985155;28;20279;-73
2021/12/25 10:21:21;;;;;;;5.73;4.80;;;;;;;14.55;59.21;100189.94;4983205;28;20034;-75
2021/12/25 10:24:17;;;;;;;3.88;3.47;;;;;;;14.48;59.53;100175.88;5000792;28;20261;-75
2021/12/25 10:26:46;;;;;;;3.28;2.75;;;;;;;14.04;60.23;100171.13;5000270;28;20532;-74
2021/12/25 10:29:22;;;;;;;2.60;2.38;;;;;;;13.99;60.95;100174.28;5002968;28;20030;-74
2021/12/25 10:31:52;;;;;;;2.50;2.28;;;;;;;14.00;60.10;100167.47;5002936;28;20080;-75
2021/12/25 10:34:24;;;;;;;5.28;3.35;;;;;;;13.97;60.92;100159.88;5000558;28;20478;-75
2021/12/25 10:36:53;;;;;;;4.25;3.85;;;;;;;14.00;60.01;100159.09;5000373;28;20026;-75
2021/12/25 10:39:25;;;;;;;7.35;4.15;;;;;;;14.17;59.81;100140.88;5001201;28;20182;-75
2021/12/25 10:42:06;;;;;;;4.47;3.45;;;;;;;14.26;59.53;100138.50;5000009;28;20511;-75
2021/12/25 10:44:48;;;;;;;2.47;2.28;;;;;;;14.16;59.61;100148.44;5000290;28;20036;-75
2021/12/25 10:47:20;;;;;;;4.85;2.97;;;;;;;14.22;59.32;100136.88;5001371;28;20476;-74
2021/12/25 10:49:56;;;;;;;8.13;4.18;;;;;;;14.34;59.04;100134.59;5019847;28;20030;-75
2021/12/25 10:52:29;;;;;;;3.95;3.60;;;;;;;14.48;58.76;100127.47;5003445;28;20360;-74
2021/12/25 10:55:16;;;;;;;4.85;3.30;;;;;;;14.70;58.12;100128.41;5007299;28;20025;-74
2021/12/25 10:57:49;;;;;;;11.07;4.88;;;;;;;14.98;58.20;100124.97;5007301;28;20527;-76
2021/12/25 11:00:34;;;;;;;7.50;4.32;;;;;;;14.97;56.82;100118.56;5005874;28;20033;-76
2021/12/25 11:03:05;;;;;;;4.72;2.90;;;;;;;15.04;56.43;100126.97;5004218;28;20037;-76
2021/12/25 11:06:13;;;;;;;20.95;9.57;;;;;;;15.05;56.76;100116.56;5002908;28;20022;-76
2021/12/25 11:08:41;;;;;;;4.68;2.75;;;;;;;15.16;56.18;100111.81;4998993;28;20041;-75
2021/12/25 11:11:11;;;;;;;4.75;3.22;;;;;;;15.16;56.82;100095.78;4999084;28;20487;-76
2021/12/25 11:13:45;;;;;;;5.20;3.22;;;;;;;15.10;57.26;100083.38;4999025;28;20369;-75
2021/12/25 11:16:40;;;;;;;7.13;3.83;;;;;;;15.28;56.70;100103.03;4998058;28;20084;-75
2021/12/25 11:19:17;;;;;;;3.78;3.47;;;;;;;15.16;56.58;100095.78;4997786;28;20033;-75
2021/12/25 11:21:44;;;;;;;5.20;4.68;;;;;;;15.06;56.64;100092.94;4997841;28;20445;-75
2021/12/25 11:24:18;;;;;;;5.57;3.58;;;;;;;15.01;55.83;100082.13;4998276;28;20487;-75
2021/12/25 11:27:07;;;;;;;5.72;3.08;;;;;;;15.10;56.13;100074.16;4998585;28;20030;-77
2021/12/25 11:29:36;;;;;;;8.38;5.80;;;;;;;15.19;55.35;100072.59;4997238;28;20037;-75
2021/12/25 11:35:05;;;;;;;4.68;3.83;;;;;;;15.11;56.08;100054.13;5015955;28;20117;-76
2021/12/25 11:37:31;;;;;;;7.75;5.53;;;;;;;15.24;55.92;100048.97;4997727;28;20034;-76
2021/12/25 11:39:57;;;;;;;8.90;8.05;;;;;;;15.49;55.00;100057.41;4999163;28;20029;-75
2021/12/25 11:43:02;;;;;;;9.02;6.28;;;;;;;15.82;54.59;100044.22;4997506;28;20105;-75
2021/12/25 11:45:36;;;;;;;4.70;4.15;;;;;;;16.03;54.22;100047.00;5000221;28;20160;-75
2021/12/25 11:48:20;;;;;;;9.05;8.15;;;;;;;15.93;52.33;100025.38;5014742;28;20117;-74
2021/12/25 11:50:51;;;;;;;4.22;2.95;;;;;;;15.99;52.06;100035.00;4998044;28;20469;-75
2021/12/25 11:53:40;;;;;;;4.70;4.20;;;;;;;15.96;52.81;100030.16;4997162;28;20381;-74
2021/12/25 11:58:54;;;;;;;3.08;2.78;;;;;;;15.86;52.27;100020.56;5015207;28;20053;-74
2021/12/25 12:01:32;;;;;;;;;;;;;;;15.73;52.62;100027.00;5014316;28;20491;-74
2021/12/25 12:04:09;;;;;;;8.18;4.88;;;;;;;15.93;52.84;100020.56;4996776;28;19995;-74
2021/12/25 12:06:44;;;;;;;15.13;11.25;;;;;;;15.82;53.77;100024.56;4996823;28;20122;-75
2021/12/25 12:09:30;;;;;;;9.43;7.57;;;;;;;15.77;53.47;100027.81;4997091;28;20073;-75
2021/12/25 12:12:05;;;;;;;6.63;3.78;;;;;;;15.59;54.54;100022.16;4997592;28;20092;-75
2021/12/25 12:14:32;;;;;;;7.55;6.05;;;;;;;15.61;54.60;100023.38;4996804;28;20022;-74
2021/12/25 12:17:03;;;;;;;7.50;4.75;;;;;;;15.54;53.76;100009.34;4996380;28;20518;-75
2021/12/25 12:19:36;;;;;;;8.60;5.97;;;;;;;15.41;54.36;100014.56;4996348;28;20090;-75
2021/12/25 12:22:15;;;;;;;8.57;5.07;;;;;;;15.34;54.37;99986.53;4996131;28;20061;-75
2021/12/25 12:27:34;;;;;;;6.85;4.40;;;;;;;15.30;54.77;100015.75;5013277;28;20038;-74
2021/12/25 12:30:20;;;;;;;5.90;4.65;;;;;;;15.09;55.72;100014.50;4996330;28;20087;-75
2021/12/25 12:32:48;;;;;;;8.25;6.03;;;;;;;15.05;56.10;99998.88;4956996;28;20046;-74
2021/12/25 12:35:47;;;;;;;8.35;7.50;;;;;;;15.20;55.89;99990.09;4996587;28;20358;-74
2021/12/25 12:41:33;;;;;;;5.63;4.20;;;;;;;15.09;55.88;99991.31;5014483;28;20038;-74
2021/12/25 12:44:06;;;;;;;11.35;8.63;;;;;;;14.90;56.60;99989.66;5011824;28;20056;-74
2021/12/25 12:46:47;;;;;;;8.05;6.75;;;;;;;14.80;56.96;99987.63;4997160;28;20029;-75
2021/12/25 12:49:19;;;;;;;11.68;8.18;;;;;;;14.77;57.41;99978.03;5016612;28;20029;-74
2021/12/25 12:52:37;;;;;;;13.98;10.43;;;;;;;14.86;57.68;99977.63;5018602;28;20076;-74
2021/12/25 12:55:26;;;;;;;25.00;17.77;;;;;;;14.67;57.62;99979.59;5001246;28;20066;-74
2021/12/25 12:58:32;;;;;;;15.73;11.20;;;;;;;14.59;58.58;99975.16;5000448;28;20476;-74
2021/12/25 13:01:01;;;;;;;10.35;9.15;;;;;;;14.55;58.14;99965.97;4941922;29;20403;-74
2021/12/25 13:03:36;;;;;;;17.83;13.77;;;;;;;14.52;58.84;99980.75;4991722;28;20037;-75
2021/12/25 13:06:10;;;;;;;9.90;7.03;;;;;;;14.42;59.00;99967.47;5002518;28;20022;-75
2021/12/25 13:08:58;;;;;;;5.25;4.68;;;;;;;14.43;58.97;99957.88;5003712;28;20052;-75
2021/12/25 13:11:33;;;;;;;8.85;7.93;;;;;;;14.43;58.81;99963.47;5002304;28;20026;-75
2021/12/25 13:14:26;;;;;;;45.47;36.05;;;;;;;14.46;59.51;99951.50;5000441;28;20033;-76
2021/12/25 13:16:54;;;;;;;26.52;21.13;;;;;;;14.34;59.74;99960.25;5000532;28;20487;-75